sensor_id;sensor_type;location;lat;lon;timestamp;pressure;altitude;pressure_sealevel;temperature;humidity
64354;BME280;50681;53.334;-6.536;2023-05-09T00:02:15;100591.97;;;15.73;100.00
64354;BME280;50681;53.334;-6.536;2023-05-09T00:04:41;100581.25;;;15.68;100.00
64354;BME280;50681;53.334;-6.536;2023-05-09T00:07:06;100579.53;;;15.63;100.00
64354;BME280;50681;53.334;-6.536;2023-05-09T00:09:32;100572.78;;;15.69;100.00
64354;BME280;50681;53.334;-6.536;2023-05-09T00:11:57;100572.97;;;15.64;100.00
64354;BME280;50681;53.334;-6.536;2023-05-09T00:14:22;100571.97;;;15.69;100.00
64354;BME280;50681;53.334;-6.536;2023-05-09T00:16:49;100574.25;;;15.58;100.00
64354;BME280;50681;53.334;-6.536;2023-05-09T00:19:14;100586.72;;;15.59;100.00
64354;BME280;50681;53.334;-6.536;2023-05-09T00:21:40;100583.84;;;15.64;100.00
64354;BME280;50681;53.334;-6.536;2023-05-09T00:24:05;100588.03;;;15.53;100.00
64354;BME280;50681;53.334;-6.536;2023-05-09T00:26:31;100595.72;;;15.51;100.00
64354;BME280;50681;53.334;-6.536;2023-05-09T00:28:56;100592.50;;;15.49;100.00
64354;BME280;50681;53.334;-6.536;2023-05-09T00:31:22;100595.53;;;15.47;100.00
64354;BME280;50681;53.334;-6.536;2023-05-09T00:33:47;100595.72;;;15.51;100.00
64354;BME280;50681;53.334;-6.536;2023-05-09T00:36:12;100594.75;;;15.29;100.00
64354;BME280;50681;53.334;-6.536;2023-05-09T00:38:38;100586.13;;;15.27;100.00
64354;BME280;50681;53.334;-6.536;2023-05-09T00:41:03;100587.53;;;15.24;100.00
64354;BME280;50681;53.334;-6.536;2023-05-09T00:43:29;100594.09;;;15.14;100.00
64354;BME280;50681;53.334;-6.536;2023-05-09T00:45:54;100600.34;;;15.06;100.00
64354;BME280;50681;53.334;-6.536;2023-05-09T00:48:20;100597.44;;;15.20;100.00
64354;BME280;50681;53.334;-6.536;2023-05-09T00:50:46;100595.72;;;15.16;100.00
64354;BME280;50681;53.334;-6.536;2023-05-09T00:53:17;100593.28;;;15.14;100.00
64354;BME280;50681;53.334;-6.536;2023-05-09T00:55:43;100592.00;;;15.20;100.00
64354;BME280;50681;53.334;-6.536;2023-05-09T00:58:10;100593.13;;;15.19;100.00
64354;BME280;50681;53.334;-6.536;2023-05-09T01:00:35;100594.88;;;15.15;100.00
64354;BME280;50681;53.334;-6.536;2023-05-09T01:03:01;100603.72;;;15.21;100.00
64354;BME280;50681;53.334;-6.536;2023-05-09T01:05:47;100596.03;;;15.23;100.00
64354;BME280;50681;53.334;-6.536;2023-05-09T01:08:24;100602.75;;;15.17;100.00
64354;BME280;50681;53.334;-6.536;2023-05-09T01:11:09;100600.47;;;14.92;100.00
64354;BME280;50681;53.334;-6.536;2023-05-09T01:13:57;100601.94;;;15.07;100.00
64354;BME280;50681;53.334;-6.536;2023-05-09T01:19:32;100601.28;;;15.02;100.00
64354;BME280;50681;53.334;-6.536;2023-05-09T01:22:04;100598.22;;;14.86;100.00
64354;BME280;50681;53.334;-6.536;2023-05-09T01:27:36;100597.72;;;14.75;100.00
64354;BME280;50681;53.334;-6.536;2023-05-09T01:30:03;100593.09;;;14.75;100.00
64354;BME280;50681;53.334;-6.536;2023-05-09T01:32:30;100590.72;;;14.82;100.00
64354;BME280;50681;53.334;-6.536;2023-05-09T01:34:59;100588.47;;;14.84;100.00
64354;BME280;50681;53.334;-6.536;2023-05-09T01:37:32;100587.66;;;14.75;100.00
64354;BME280;50681;53.334;-6.536;2023-05-09T01:40:13;100592.59;;;14.73;100.00
64354;BME280;50681;53.334;-6.536;2023-05-09T01:42:46;100582.50;;;14.74;100.00
64354;BME280;50681;53.334;-6.536;2023-05-09T01:45:14;100590.44;;;14.61;100.00
64354;BME280;50681;53.334;-6.536;2023-05-09T01:47:41;100589.34;;;14.62;100.00
64354;BME280;50681;53.334;-6.536;2023-05-09T01:50:08;100587.66;;;14.75;100.00
64354;BME280;50681;53.334;-6.536;2023-05-09T01:52:35;100583.41;;;14.51;100.00
64354;BME280;50681;53.334;-6.536;2023-05-09T01:55:02;100585.63;;;14.49;100.00
64354;BME280;50681;53.334;-6.536;2023-05-09T01:57:29;100585.09;;;14.38;100.00
64354;BME280;50681;53.334;-6.536;2023-05-09T01:59:56;100572.00;;;14.32;100.00
64354;BME280;50681;53.334;-6.536;2023-05-09T02:02:24;100581.75;;;14.33;100.00
64354;BME280;50681;53.334;-6.536;2023-05-09T02:04:50;100578.81;;;14.20;100.00
64354;BME280;50681;53.334;-6.536;2023-05-09T02:07:16;100579.78;;;14.24;100.00
64354;BME280;50681;53.334;-6.536;2023-05-09T02:09:42;100570.19;;;14.18;100.00
64354;BME280;50681;53.334;-6.536;2023-05-09T02:12:07;100576.75;;;14.26;100.00
64354;BME280;50681;53.334;-6.536;2023-05-09T02:14:33;100565.53;;;14.19;100.00
64354;BME280;50681;53.334;-6.536;2023-05-09T02:17:01;100579.66;;;14.30;100.00
64354;BME280;50681;53.334;-6.536;2023-05-09T02:19:34;100574.69;;;14.32;100.00
64354;BME280;50681;53.334;-6.536;2023-05-09T02:22:00;100568.56;;;14.17;100.00
64354;BME280;50681;53.334;-6.536;2023-05-09T02:24:26;100568.66;;;14.44;100.00
64354;BME280;50681;53.334;-6.536;2023-05-09T02:26:52;100563.91;;;14.09;100.00
64354;BME280;50681;53.334;-6.536;2023-05-09T02:29:20;100565.03;;;14.17;100.00
64354;BME280;50681;53.334;-6.536;2023-05-09T02:31:47;100554.69;;;14.68;100.00
64354;BME280;50681;53.334;-6.536;2023-05-09T02:34:15;100558.34;;;14.14;100.00
64354;BME280;50681;53.334;-6.536;2023-05-09T02:36:42;100550.06;;;14.19;100.00
64354;BME280;50681;53.334;-6.536;2023-05-09T02:39:08;100558.19;;;14.19;100.00
64354;BME280;50681;53.334;-6.536;2023-05-09T02:41:33;100552.28;;;14.17;100.00
64354;BME280;50681;53.334;-6.536;2023-05-09T02:43:58;100552.09;;;14.14;100.00
64354;BME280;50681;53.334;-6.536;2023-05-09T02:46:24;100547.00;;;14.12;100.00
64354;BME280;50681;53.334;-6.536;2023-05-09T02:48:50;100542.31;;;14.04;100.00
64354;BME280;50681;53.334;-6.536;2023-05-09T02:51:16;100537.31;;;13.88;100.00
64354;BME280;50681;53.334;-6.536;2023-05-09T02:53:41;100540.63;;;13.85;100.00
64354;BME280;50681;53.334;-6.536;2023-05-09T02:56:07;100551.50;;;13.85;100.00
64354;BME280;50681;53.334;-6.536;2023-05-09T02:58:33;100544.19;;;13.94;100.00
64354;BME280;50681;53.334;-6.536;2023-05-09T03:00:59;100544.59;;;13.79;100.00
64354;BME280;50681;53.334;-6.536;2023-05-09T03:03:24;100550.16;;;13.74;100.00
64354;BME280;50681;53.334;-6.536;2023-05-09T03:05:50;100540.53;;;13.67;100.00
64354;BME280;50681;53.334;-6.536;2023-05-09T03:08:15;100544.59;;;13.79;100.00
64354;BME280;50681;53.334;-6.536;2023-05-09T03:10:40;100535.47;;;13.75;100.00
64354;BME280;50681;53.334;-6.536;2023-05-09T03:13:10;100528.09;;;13.66;100.00
64354;BME280;50681;53.334;-6.536;2023-05-09T03:15:35;100531.56;;;13.58;100.00
64354;BME280;50681;53.334;-6.536;2023-05-09T03:18:01;100536.66;;;13.60;100.00
64354;BME280;50681;53.334;-6.536;2023-05-09T03:20:26;100542.56;;;13.62;100.00
64354;BME280;50681;53.334;-6.536;2023-05-09T03:22:51;100536.97;;;13.58;100.00
64354;BME280;50681;53.334;-6.536;2023-05-09T03:25:17;100529.81;;;13.62;100.00
64354;BME280;50681;53.334;-6.536;2023-05-09T03:27:42;100533.88;;;13.74;100.00
64354;BME280;50681;53.334;-6.536;2023-05-09T03:30:08;100530.31;;;13.64;100.00
64354;BME280;50681;53.334;-6.536;2023-05-09T03:32:34;100525.31;;;13.58;100.00
64354;BME280;50681;53.334;-6.536;2023-05-09T03:34:59;100520.81;;;13.53;100.00
64354;BME280;50681;53.334;-6.536;2023-05-09T03:37:25;100518.47;;;13.60;100.00
64354;BME280;50681;53.334;-6.536;2023-05-09T03:39:50;100523.16;;;13.69;100.00
64354;BME280;50681;53.334;-6.536;2023-05-09T03:42:16;100521.75;;;13.48;100.00
64354;BME280;50681;53.334;-6.536;2023-05-09T03:44:41;100527.50;;;13.47;100.00
64354;BME280;50681;53.334;-6.536;2023-05-09T03:47:06;100520.69;;;13.58;100.00
64354;BME280;50681;53.334;-6.536;2023-05-09T03:49:32;100519.69;;;13.31;100.00
64354;BME280;50681;53.334;-6.536;2023-05-09T03:51:57;100522.28;;;13.36;100.00
64354;BME280;50681;53.334;-6.536;2023-05-09T03:54:23;100519.38;;;13.56;100.00
64354;BME280;50681;53.334;-6.536;2023-05-09T03:56:48;100512.00;;;13.47;100.00
64354;BME280;50681;53.334;-6.536;2023-05-09T03:59:13;100515.53;;;13.48;100.00
64354;BME280;50681;53.334;-6.536;2023-05-09T04:01:40;100506.38;;;13.66;100.00
64354;BME280;50681;53.334;-6.536;2023-05-09T04:04:06;100512.28;;;13.69;100.00
64354;BME280;50681;53.334;-6.536;2023-05-09T04:06:31;100509.53;;;13.60;100.00
64354;BME280;50681;53.334;-6.536;2023-05-09T04:08:57;100507.63;;;13.60;100.00
64354;BME280;50681;53.334;-6.536;2023-05-09T04:11:22;100510.28;;;13.51;100.00
64354;BME280;50681;53.334;-6.536;2023-05-09T04:13:48;100507.88;;;13.50;100.00
64354;BME280;50681;53.334;-6.536;2023-05-09T04:16:13;100504.84;;;13.51;100.00
64354;BME280;50681;53.334;-6.536;2023-05-09T04:18:39;100500.59;;;13.59;100.00
64354;BME280;50681;53.334;-6.536;2023-05-09T04:21:06;100493.84;;;13.34;100.00
64354;BME280;50681;53.334;-6.536;2023-05-09T04:23:32;100499.38;;;13.43;100.00
64354;BME280;50681;53.334;-6.536;2023-05-09T04:25:57;100501.47;;;13.46;100.00
64354;BME280;50681;53.334;-6.536;2023-05-09T04:28:22;100500.03;;;13.48;100.00
64354;BME280;50681;53.334;-6.536;2023-05-09T04:30:48;100488.31;;;13.62;100.00
64354;BME280;50681;53.334;-6.536;2023-05-09T04:33:13;100490.78;;;13.49;100.00
64354;BME280;50681;53.334;-6.536;2023-05-09T04:35:39;100485.09;;;13.60;100.00
64354;BME280;50681;53.334;-6.536;2023-05-09T04:38:05;100487.53;;;13.61;100.00
64354;BME280;50681;53.334;-6.536;2023-05-09T04:40:30;100499.84;;;13.67;100.00
64354;BME280;50681;53.334;-6.536;2023-05-09T04:42:56;100490.13;;;13.75;100.00
64354;BME280;50681;53.334;-6.536;2023-05-09T04:45:22;100490.69;;;13.95;100.00
64354;BME280;50681;53.334;-6.536;2023-05-09T04:47:47;100504.69;;;14.20;100.00
64354;BME280;50681;53.334;-6.536;2023-05-09T04:50:12;100500.69;;;14.17;100.00
64354;BME280;50681;53.334;-6.536;2023-05-09T04:52:38;100488.44;;;14.29;100.00
64354;BME280;50681;53.334;-6.536;2023-05-09T04:55:03;100495.31;;;14.44;100.00
64354;BME280;50681;53.334;-6.536;2023-05-09T04:57:29;100486.22;;;14.48;100.00
64354;BME280;50681;53.334;-6.536;2023-05-09T04:59:54;100484.97;;;14.54;100.00
64354;BME280;50681;53.334;-6.536;2023-05-09T05:02:20;100494.88;;;14.59;100.00
64354;BME280;50681;53.334;-6.536;2023-05-09T05:04:46;100488.50;;;14.64;100.00
64354;BME280;50681;53.334;-6.536;2023-05-09T05:07:11;100491.88;;;14.69;100.00
64354;BME280;50681;53.334;-6.536;2023-05-09T05:09:37;100499.56;;;14.85;100.00
64354;BME280;50681;53.334;-6.536;2023-05-09T05:12:02;100485.03;;;14.90;100.00
64354;BME280;50681;53.334;-6.536;2023-05-09T05:14:31;100496.53;;;15.04;100.00
64354;BME280;50681;53.334;-6.536;2023-05-09T05:16:57;100487.25;;;15.05;100.00
64354;BME280;50681;53.334;-6.536;2023-05-09T05:19:22;100491.88;;;15.13;100.00
64354;BME280;50681;53.334;-6.536;2023-05-09T05:21:48;100482.28;;;15.25;100.00
64354;BME280;50681;53.334;-6.536;2023-05-09T05:24:13;100487.84;;;15.37;100.00
64354;BME280;50681;53.334;-6.536;2023-05-09T05:26:38;100474.59;;;15.27;100.00
64354;BME280;50681;53.334;-6.536;2023-05-09T05:29:04;100484.78;;;15.39;100.00
64354;BME280;50681;53.334;-6.536;2023-05-09T05:31:30;100482.06;;;15.48;100.00
64354;BME280;50681;53.334;-6.536;2023-05-09T05:33:55;100476.44;;;15.53;100.00
64354;BME280;50681;53.334;-6.536;2023-05-09T05:36:21;100480.91;;;15.57;100.00
64354;BME280;50681;53.334;-6.536;2023-05-09T05:38:46;100476.75;;;15.60;100.00
64354;BME280;50681;53.334;-6.536;2023-05-09T05:41:11;100486.66;;;15.65;100.00
64354;BME280;50681;53.334;-6.536;2023-05-09T05:43:39;100483.97;;;15.56;100.00
64354;BME280;50681;53.334;-6.536;2023-05-09T05:46:05;100479.59;;;15.64;100.00
64354;BME280;50681;53.334;-6.536;2023-05-09T05:48:30;100488.06;;;15.71;100.00
64354;BME280;50681;53.334;-6.536;2023-05-09T05:50:55;100486.78;;;15.77;100.00
64354;BME280;50681;53.334;-6.536;2023-05-09T05:53:21;100487.41;;;15.83;100.00
64354;BME280;50681;53.334;-6.536;2023-05-09T05:55:46;100490.41;;;15.99;100.00
64354;BME280;50681;53.334;-6.536;2023-05-09T05:58:13;100490.72;;;16.27;100.00
64354;BME280;50681;53.334;-6.536;2023-05-09T06:00:38;100484.25;;;16.11;100.00
64354;BME280;50681;53.334;-6.536;2023-05-09T06:03:04;100500.22;;;16.21;100.00
64354;BME280;50681;53.334;-6.536;2023-05-09T06:05:29;100481.94;;;16.22;100.00
64354;BME280;50681;53.334;-6.536;2023-05-09T06:07:55;100484.63;;;16.30;100.00
64354;BME280;50681;53.334;-6.536;2023-05-09T06:10:20;100492.09;;;16.42;100.00
64354;BME280;50681;53.334;-6.536;2023-05-09T06:12:46;100491.50;;;16.58;100.00
64354;BME280;50681;53.334;-6.536;2023-05-09T06:15:11;100491.44;;;16.67;100.00
64354;BME280;50681;53.334;-6.536;2023-05-09T06:17:36;100489.63;;;16.71;100.00
64354;BME280;50681;53.334;-6.536;2023-05-09T06:20:02;100499.69;;;16.79;100.00
64354;BME280;50681;53.334;-6.536;2023-05-09T06:22:28;100493.34;;;16.87;100.00
64354;BME280;50681;53.334;-6.536;2023-05-09T06:24:53;100498.13;;;16.99;100.00
64354;BME280;50681;53.334;-6.536;2023-05-09T06:27:18;100498.91;;;17.00;100.00
64354;BME280;50681;53.334;-6.536;2023-05-09T06:29:44;100491.44;;;17.09;100.00
64354;BME280;50681;53.334;-6.536;2023-05-09T06:32:09;100501.69;;;17.12;100.00
64354;BME280;50681;53.334;-6.536;2023-05-09T06:34:35;100507.53;;;17.23;100.00
64354;BME280;50681;53.334;-6.536;2023-05-09T06:37:00;100497.16;;;17.16;100.00
64354;BME280;50681;53.334;-6.536;2023-05-09T06:39:26;100494.59;;;17.32;100.00
64354;BME280;50681;53.334;-6.536;2023-05-09T06:41:51;100493.78;;;17.32;100.00
64354;BME280;50681;53.334;-6.536;2023-05-09T06:44:16;100494.03;;;17.39;100.00
64354;BME280;50681;53.334;-6.536;2023-05-09T06:46:42;100504.03;;;17.35;100.00
64354;BME280;50681;53.334;-6.536;2023-05-09T06:49:07;100499.41;;;17.36;100.00
64354;BME280;50681;53.334;-6.536;2023-05-09T06:51:33;100504.97;;;17.39;100.00
64354;BME280;50681;53.334;-6.536;2023-05-09T06:53:58;100516.81;;;17.43;100.00
64354;BME280;50681;53.334;-6.536;2023-05-09T06:56:24;100511.06;;;17.24;100.00
64354;BME280;50681;53.334;-6.536;2023-05-09T06:58:50;100512.59;;;17.12;100.00
64354;BME280;50681;53.334;-6.536;2023-05-09T07:01:15;100510.16;;;16.98;100.00
64354;BME280;50681;53.334;-6.536;2023-05-09T07:03:41;100514.44;;;16.78;100.00
64354;BME280;50681;53.334;-6.536;2023-05-09T07:06:07;100518.16;;;16.95;100.00
64354;BME280;50681;53.334;-6.536;2023-05-09T07:08:32;100512.53;;;17.00;100.00
64354;BME280;50681;53.334;-6.536;2023-05-09T07:10:58;100510.00;;;17.16;100.00
64354;BME280;50681;53.334;-6.536;2023-05-09T07:13:23;100518.09;;;17.25;100.00
64354;BME280;50681;53.334;-6.536;2023-05-09T07:15:49;100514.19;;;17.34;100.00
64354;BME280;50681;53.334;-6.536;2023-05-09T07:18:14;100512.25;;;17.47;100.00
64354;BME280;50681;53.334;-6.536;2023-05-09T07:20:40;100526.13;;;17.42;100.00
64354;BME280;50681;53.334;-6.536;2023-05-09T07:23:05;100524.66;;;17.45;100.00
64354;BME280;50681;53.334;-6.536;2023-05-09T07:25:31;100523.09;;;17.23;100.00
64354;BME280;50681;53.334;-6.536;2023-05-09T07:27:56;100524.66;;;17.45;100.00
64354;BME280;50681;53.334;-6.536;2023-05-09T07:30:22;100522.50;;;17.51;100.00
64354;BME280;50681;53.334;-6.536;2023-05-09T07:32:48;100519.88;;;17.42;100.00
64354;BME280;50681;53.334;-6.536;2023-05-09T07:35:13;100525.19;;;17.72;100.00
64354;BME280;50681;53.334;-6.536;2023-05-09T07:37:38;100526.88;;;17.64;100.00
64354;BME280;50681;53.334;-6.536;2023-05-09T07:40:05;100535.97;;;17.68;100.00
64354;BME280;50681;53.334;-6.536;2023-05-09T07:42:31;100534.38;;;17.67;100.00
64354;BME280;50681;53.334;-6.536;2023-05-09T07:44:57;100529.31;;;17.90;100.00
64354;BME280;50681;53.334;-6.536;2023-05-09T07:47:23;100523.72;;;17.87;100.00
64354;BME280;50681;53.334;-6.536;2023-05-09T07:49:49;100526.38;;;17.96;100.00
64354;BME280;50681;53.334;-6.536;2023-05-09T07:52:15;100529.88;;;17.84;100.00
64354;BME280;50681;53.334;-6.536;2023-05-09T07:54:42;100528.06;;;17.88;100.00
64354;BME280;50681;53.334;-6.536;2023-05-09T07:57:07;100515.22;;;17.88;100.00
64354;BME280;50681;53.334;-6.536;2023-05-09T07:59:33;100523.25;;;17.72;100.00
64354;BME280;50681;53.334;-6.536;2023-05-09T08:01:58;100521.84;;;17.54;100.00
64354;BME280;50681;53.334;-6.536;2023-05-09T08:04:27;100525.16;;;17.59;100.00
64354;BME280;50681;53.334;-6.536;2023-05-09T08:06:52;100519.13;;;18.00;100.00
64354;BME280;50681;53.334;-6.536;2023-05-09T08:09:21;100517.78;;;17.72;100.00
64354;BME280;50681;53.334;-6.536;2023-05-09T08:11:47;100519.41;;;17.86;100.00
64354;BME280;50681;53.334;-6.536;2023-05-09T08:14:13;100521.94;;;18.03;100.00
64354;BME280;50681;53.334;-6.536;2023-05-09T08:16:49;100508.19;;;18.00;100.00
64354;BME280;50681;53.334;-6.536;2023-05-09T08:19:19;100512.34;;;17.97;100.00
64354;BME280;50681;53.334;-6.536;2023-05-09T08:21:47;100523.41;;;17.88;100.00
64354;BME280;50681;53.334;-6.536;2023-05-09T08:24:13;100512.63;;;18.04;100.00
64354;BME280;50681;53.334;-6.536;2023-05-09T08:26:38;100510.78;;;18.09;100.00
64354;BME280;50681;53.334;-6.536;2023-05-09T08:29:04;100509.59;;;17.85;100.00
64354;BME280;50681;53.334;-6.536;2023-05-09T08:31:29;100503.06;;;17.52;100.00
64354;BME280;50681;53.334;-6.536;2023-05-09T08:33:55;100500.41;;;17.77;100.00
64354;BME280;50681;53.334;-6.536;2023-05-09T08:36:20;100508.25;;;17.91;100.00
64354;BME280;50681;53.334;-6.536;2023-05-09T08:38:46;100502.44;;;17.80;100.00
64354;BME280;50681;53.334;-6.536;2023-05-09T08:41:11;100508.59;;;17.77;100.00
64354;BME280;50681;53.334;-6.536;2023-05-09T08:43:37;100499.25;;;17.78;100.00
64354;BME280;50681;53.334;-6.536;2023-05-09T08:46:06;100497.81;;;18.18;100.00
64354;BME280;50681;53.334;-6.536;2023-05-09T08:48:34;100505.28;;;18.58;100.00
64354;BME280;50681;53.334;-6.536;2023-05-09T08:51:04;100501.88;;;18.90;100.00
64354;BME280;50681;53.334;-6.536;2023-05-09T08:53:30;100493.63;;;18.74;100.00
64354;BME280;50681;53.334;-6.536;2023-05-09T08:55:59;100496.59;;;18.69;100.00
64354;BME280;50681;53.334;-6.536;2023-05-09T08:58:25;100496.38;;;18.74;100.00
64354;BME280;50681;53.334;-6.536;2023-05-09T09:00:52;100494.50;;;18.90;100.00
64354;BME280;50681;53.334;-6.536;2023-05-09T09:03:19;100484.69;;;18.89;100.00
64354;BME280;50681;53.334;-6.536;2023-05-09T09:05:45;100499.06;;;19.43;100.00
64354;BME280;50681;53.334;-6.536;2023-05-09T09:14:47;100478.34;;;18.32;100.00
64354;BME280;50681;53.334;-6.536;2023-05-09T09:17:27;100478.88;;;18.50;100.00
64354;BME280;50681;53.334;-6.536;2023-05-09T09:22:54;100471.88;;;19.06;100.00
64354;BME280;50681;53.334;-6.536;2023-05-09T09:25:28;100469.63;;;19.24;100.00
64354;BME280;50681;53.334;-6.536;2023-05-09T09:28:11;100463.41;;;19.88;100.00
64354;BME280;50681;53.334;-6.536;2023-05-09T09:30:49;100466.41;;;20.15;100.00
64354;BME280;50681;53.334;-6.536;2023-05-09T09:33:24;100463.44;;;20.59;100.00
64354;BME280;50681;53.334;-6.536;2023-05-09T09:35:51;100464.69;;;20.81;100.00
64354;BME280;50681;53.334;-6.536;2023-05-09T09:38:18;100454.34;;;20.75;100.00
64354;BME280;50681;53.334;-6.536;2023-05-09T09:40:55;100450.34;;;20.88;100.00
64354;BME280;50681;53.334;-6.536;2023-05-09T09:43:32;100464.28;;;20.08;100.00
64354;BME280;50681;53.334;-6.536;2023-05-09T09:46:29;100456.97;;;20.67;100.00
64354;BME280;50681;53.334;-6.536;2023-05-09T09:49:19;100447.28;;;20.74;100.00
64354;BME280;50681;53.334;-6.536;2023-05-09T09:55:56;100440.06;;;20.46;100.00
64354;BME280;50681;53.334;-6.536;2023-05-09T09:58:27;100444.50;;;20.34;100.00
64354;BME280;50681;53.334;-6.536;2023-05-09T10:01:10;100441.69;;;20.86;100.00
64354;BME280;50681;53.334;-6.536;2023-05-09T10:03:45;100440.69;;;21.18;100.00
64354;BME280;50681;53.334;-6.536;2023-05-09T10:06:15;100439.13;;;20.97;100.00
64354;BME280;50681;53.334;-6.536;2023-05-09T10:08:58;100444.66;;;20.41;100.00
64354;BME280;50681;53.334;-6.536;2023-05-09T10:11:24;100441.41;;;20.36;100.00
64354;BME280;50681;53.334;-6.536;2023-05-09T10:13:49;100445.25;;;20.70;100.00
64354;BME280;50681;53.334;-6.536;2023-05-09T10:16:15;100436.75;;;20.95;100.00
64354;BME280;50681;53.334;-6.536;2023-05-09T10:18:41;100425.13;;;21.25;100.00
64354;BME280;50681;53.334;-6.536;2023-05-09T10:21:07;100430.94;;;21.43;100.00
64354;BME280;50681;53.334;-6.536;2023-05-09T10:23:36;100432.63;;;21.75;100.00
64354;BME280;50681;53.334;-6.536;2023-05-09T10:26:23;100440.47;;;22.00;100.00
64354;BME280;50681;53.334;-6.536;2023-05-09T10:28:54;100439.28;;;22.28;100.00
64354;BME280;50681;53.334;-6.536;2023-05-09T10:31:24;100433.13;;;22.38;100.00
64354;BME280;50681;53.334;-6.536;2023-05-09T10:33:51;100436.22;;;22.33;100.00
64354;BME280;50681;53.334;-6.536;2023-05-09T10:36:20;100429.88;;;22.29;100.00
64354;BME280;50681;53.334;-6.536;2023-05-09T10:38:47;100418.84;;;22.25;100.00
64354;BME280;50681;53.334;-6.536;2023-05-09T10:41:15;100424.84;;;22.65;100.00
64354;BME280;50681;53.334;-6.536;2023-05-09T10:43:40;100414.53;;;22.28;100.00
64354;BME280;50681;53.334;-6.536;2023-05-09T10:46:06;100418.28;;;23.15;100.00
64354;BME280;50681;53.334;-6.536;2023-05-09T10:48:32;100406.88;;;22.75;100.00
64354;BME280;50681;53.334;-6.536;2023-05-09T10:50:59;100409.25;;;22.76;100.00
64354;BME280;50681;53.334;-6.536;2023-05-09T10:56:05;100403.97;;;22.98;100.00
64354;BME280;50681;53.334;-6.536;2023-05-09T10:58:33;100388.81;;;23.15;100.00
64354;BME280;50681;53.334;-6.536;2023-05-09T11:01:03;100391.41;;;22.63;100.00
64354;BME280;50681;53.334;-6.536;2023-05-09T11:03:50;100386.91;;;22.48;100.00
64354;BME280;50681;53.334;-6.536;2023-05-09T11:14:41;100374.63;;;22.75;97.68
64354;BME280;50681;53.334;-6.536;2023-05-09T11:17:37;100375.78;;;22.40;91.73
64354;BME280;50681;53.334;-6.536;2023-05-09T11:20:27;100374.63;;;22.41;88.79
64354;BME280;50681;53.334;-6.536;2023-05-09T11:22:58;100366.91;;;22.88;87.69
64354;BME280;50681;53.334;-6.536;2023-05-09T11:25:24;100375.53;;;22.87;87.84
64354;BME280;50681;53.334;-6.536;2023-05-09T11:27:58;100371.03;;;23.09;90.60
64354;BME280;50681;53.334;-6.536;2023-05-09T11:30:42;100367.97;;;23.67;85.02
64354;BME280;50681;53.334;-6.536;2023-05-09T11:33:26;100372.19;;;23.53;92.66
64354;BME280;50681;53.334;-6.536;2023-05-09T11:36:13;100358.44;;;24.24;85.67
64354;BME280;50681;53.334;-6.536;2023-05-09T11:38:42;100364.22;;;23.97;83.43
64354;BME280;50681;53.334;-6.536;2023-05-09T11:41:07;100362.19;;;23.86;83.68
64354;BME280;50681;53.334;-6.536;2023-05-09T11:43:35;100361.69;;;23.21;80.61
64354;BME280;50681;53.334;-6.536;2023-05-09T11:46:02;100360.31;;;23.42;82.62
64354;BME280;50681;53.334;-6.536;2023-05-09T11:48:27;100369.53;;;24.38;77.14
64354;BME280;50681;53.334;-6.536;2023-05-09T11:50:53;100358.63;;;23.82;80.61
64354;BME280;50681;53.334;-6.536;2023-05-09T11:53:18;100362.88;;;23.20;85.16
64354;BME280;50681;53.334;-6.536;2023-05-09T11:55:44;100368.28;;;23.09;87.77
64354;BME280;50681;53.334;-6.536;2023-05-09T11:58:10;100362.78;;;23.09;82.63
64354;BME280;50681;53.334;-6.536;2023-05-09T12:00:43;100364.25;;;23.41;82.19
64354;BME280;50681;53.334;-6.536;2023-05-09T12:03:09;100350.22;;;22.70;82.46
64354;BME280;50681;53.334;-6.536;2023-05-09T12:05:35;100370.09;;;23.36;82.20
64354;BME280;50681;53.334;-6.536;2023-05-09T12:08:05;100364.41;;;23.62;79.46
64354;BME280;50681;53.334;-6.536;2023-05-09T12:10:31;100357.97;;;22.99;71.47
64354;BME280;50681;53.334;-6.536;2023-05-09T12:13:10;100364.78;;;22.40;77.20
64354;BME280;50681;53.334;-6.536;2023-05-09T12:15:36;100359.72;;;22.76;80.32
64354;BME280;50681;53.334;-6.536;2023-05-09T12:18:06;100354.03;;;22.28;82.56
64354;BME280;50681;53.334;-6.536;2023-05-09T12:20:46;100362.19;;;22.21;87.80
64354;BME280;50681;53.334;-6.536;2023-05-09T12:23:13;100348.38;;;21.86;92.21
64354;BME280;50681;53.334;-6.536;2023-05-09T12:25:59;100353.59;;;22.26;90.50
64354;BME280;50681;53.334;-6.536;2023-05-09T12:28:25;100349.44;;;22.05;94.47
64354;BME280;50681;53.334;-6.536;2023-05-09T12:30:52;100352.41;;;22.23;94.89
64354;BME280;50681;53.334;-6.536;2023-05-09T12:33:18;100351.66;;;22.26;94.85
64354;BME280;50681;53.334;-6.536;2023-05-09T12:35:48;100355.47;;;22.49;100.00
64354;BME280;50681;53.334;-6.536;2023-05-09T12:38:24;100359.69;;;22.39;90.31
64354;BME280;50681;53.334;-6.536;2023-05-09T12:41:04;100352.00;;;22.93;87.65
64354;BME280;50681;53.334;-6.536;2023-05-09T12:43:31;100359.34;;;23.19;87.94
64354;BME280;50681;53.334;-6.536;2023-05-09T12:45:57;100349.03;;;22.68;91.73
64354;BME280;50681;53.334;-6.536;2023-05-09T12:48:23;100340.03;;;22.74;94.62
64354;BME280;50681;53.334;-6.536;2023-05-09T12:50:50;100356.75;;;23.38;92.00
64354;BME280;50681;53.334;-6.536;2023-05-09T12:53:25;100347.72;;;23.41;92.84
64354;BME280;50681;53.334;-6.536;2023-05-09T12:56:03;100342.19;;;23.41;86.86
64354;BME280;50681;53.334;-6.536;2023-05-09T12:58:32;100352.81;;;23.35;84.74
64354;BME280;50681;53.334;-6.536;2023-05-09T13:00:59;100361.31;;;23.71;77.77
64354;BME280;50681;53.334;-6.536;2023-05-09T13:03:26;100351.56;;;23.92;72.03
64354;BME280;50681;53.334;-6.536;2023-05-09T13:06:00;100358.69;;;23.97;65.79